Time;durP1;ratioP1;P1;durP2;ratioP2;P2;SDS_P1;SDS_P2;PMS_P1;PMS_P2;Temp;Humidity;BMP_temperature;BMP_pressure;BME280_temperature;BME280_humidity;BME280_pressure;Samples;Min_cycle;Max_cycle;Signal;HPM_P1;HPM_P2
2022/08/30 00:03:17;;;;;;;9.63;3.80;;;17.50;99.90;;;;;;4998054;28;20531;-73
2022/08/30 00:05:43;;;;;;;10.30;4.05;;;17.50;99.90;;;;;;4999341;28;20034;-73
2022/08/30 00:08:09;;;;;;;7.95;3.50;;;17.50;99.90;;;;;;5009429;28;20088;-73
2022/08/30 00:10:36;;;;;;;10.63;4.15;;;17.50;99.90;;;;;;5011474;28;20494;-73
2022/08/30 00:13:01;;;;;;;13.88;4.03;;;17.50;99.90;;;;;;5010377;28;20022;-73
2022/08/30 00:15:28;;;;;;;5.55;3.72;;;17.50;99.90;;;;;;5011156;28;20497;-73
2022/08/30 00:17:54;;;;;;;6.60;3.60;;;17.50;99.90;;;;;;5011413;28;20109;-74
2022/08/30 00:20:23;;;;;;;9.05;3.72;;;17.50;99.90;;;;;;5011091;28;20100;-73
2022/08/30 00:22:49;;;;;;;9.25;3.13;;;17.40;99.90;;;;;;5010788;28;20064;-74
2022/08/30 00:25:16;;;;;;;6.03;3.50;;;17.40;99.90;;;;;;5011004;28;20062;-73
2022/08/30 00:27:42;;;;;;;8.45;3.72;;;17.40;99.90;;;;;;5010696;28;20101;-73
2022/08/30 00:30:09;;;;;;;8.25;3.25;;;17.40;99.90;;;;;;5011405;28;20038;-73
2022/08/30 00:32:35;;;;;;;7.22;3.50;;;17.50;99.90;;;;;;5010809;28;20033;-73
2022/08/30 00:35:02;;;;;;;8.95;3.83;;;17.40;99.90;;;;;;5010049;28;20026;-72
2022/08/30 00:37:27;;;;;;;7.30;3.38;;;17.40;99.90;;;;;;5010585;28;20080;-73
2022/08/30 00:39:53;;;;;;;9.77;3.38;;;17.40;99.90;;;;;;5004013;28;20022;-73
2022/08/30 00:42:19;;;;;;;8.35;3.67;;;17.40;99.90;;;;;;5010828;28;20351;-73
2022/08/30 00:44:45;;;;;;;7.57;3.25;;;17.40;99.90;;;;;;5007696;28;20085;-73
2022/08/30 00:47:11;;;;;;;6.88;3.40;;;17.40;99.90;;;;;;5010092;28;20034;-73
2022/08/30 00:49:40;;;;;;;7.50;3.75;;;17.40;99.90;;;;;;5010574;28;20089;-74
2022/08/30 00:52:06;;;;;;;6.05;3.13;;;17.40;99.90;;;;;;5004745;28;20022;-73
2022/08/30 00:54:34;;;;;;;6.72;3.75;;;17.30;99.90;;;;;;5002769;28;20034;-74
2022/08/30 00:57:01;;;;;;;7.03;3.70;;;17.30;99.90;;;;;;5005623;28;20041;-73
2022/08/30 00:59:28;;;;;;;25.60;16.05;;;17.30;99.90;;;;;;5001092;28;20084;-74
2022/08/30 01:01:54;;;;;;;29.63;13.88;;;17.30;99.90;;;;;;5008248;28;20054;-73
2022/08/30 01:04:23;;;;;;;9.38;4.03;;;17.30;99.90;;;;;;4998049;28;20050;-73
2022/08/30 01:06:48;;;;;;;9.70;3.97;;;17.30;99.90;;;;;;5003924;28;20026;-73
2022/08/30 01:09:14;;;;;;;5.93;3.25;;;17.30;99.90;;;;;;5007104;28;20030;-73
2022/08/30 01:11:43;;;;;;;8.80;4.18;;;17.30;99.90;;;;;;5003817;28;20026;-73
2022/08/30 01:14:10;;;;;;;6.55;3.88;;;17.30;99.90;;;;;;5005002;28;20042;-73
2022/08/30 01:16:37;;;;;;;8.73;3.53;;;17.30;99.90;;;;;;5003941;28;20018;-73
2022/08/30 01:19:05;;;;;;;6.80;3.85;;;17.20;99.90;;;;;;5012392;28;20024;-73
2022/08/30 01:21:35;;;;;;;6.43;3.58;;;17.30;99.90;;;;;;5010810;28;20117;-73
2022/08/30 01:24:02;;;;;;;7.20;3.75;;;17.20;99.90;;;;;;5010327;28;20486;-73
2022/08/30 01:26:29;;;;;;;8.65;3.92;;;17.20;99.90;;;;;;5010448;28;20022;-73
2022/08/30 01:28:58;;;;;;;6.95;3.97;;;17.30;99.90;;;;;;5010164;28;20040;-73
2022/08/30 01:31:25;;;;;;;7.22;3.80;;;17.30;99.90;;;;;;5010448;28;20026;-73
2022/08/30 01:33:51;;;;;;;7.95;3.90;;;17.30;99.90;;;;;;5010118;28;20033;-73
2022/08/30 01:36:18;;;;;;;6.63;3.80;;;17.30;99.90;;;;;;5010731;28;20018;-73
2022/08/30 01:38:53;;;;;;;8.95;3.85;;;17.20;99.90;;;;;;5010149;28;20030;-74
2022/08/30 01:41:22;;;;;;;6.72;3.78;;;17.20;99.90;;;;;;5010222;28;20026;-73
2022/08/30 01:43:50;;;;;;;10.35;4.53;;;17.30;99.90;;;;;;5010421;28;20046;-73
2022/08/30 01:46:18;;;;;;;6.40;4.20;;;17.20;99.90;;;;;;5011220;28;20022;-73
2022/08/30 01:48:45;;;;;;;7.30;3.53;;;17.30;99.90;;;;;;5014085;28;20370;-73
2022/08/30 01:51:12;;;;;;;8.13;3.95;;;17.20;99.90;;;;;;5013433;28;20026;-73
2022/08/30 01:53:39;;;;;;;8.23;4.03;;;17.20;99.90;;;;;;5013849;28;20057;-74
2022/08/30 01:56:06;;;;;;;7.63;3.90;;;17.30;99.90;;;;;;5000201;28;20034;-73
2022/08/30 01:58:33;;;;;;;6.47;3.97;;;17.20;99.90;;;;;;5007784;28;20077;-73
2022/08/30 02:00:58;;;;;;;9.45;4.40;;;17.20;99.90;;;;;;5004423;28;20064;-73
2022/08/30 02:03:29;;;;;;;7.80;4.53;;;17.20;99.90;;;;;;5013448;28;20030;-72
2022/08/30 02:05:55;;;;;;;9.63;4.43;;;17.20;99.90;;;;;;5013538;28;20751;-73
2022/08/30 02:08:20;;;;;;;8.45;4.15;;;17.20;99.90;;;;;;5013551;28;20033;-73
2022/08/30 02:10:46;;;;;;;7.53;4.45;;;17.20;99.90;;;;;;5013325;28;20422;-73
2022/08/30 02:13:12;;;;;;;7.60;4.40;;;17.20;99.90;;;;;;5009201;28;20073;-74
2022/08/30 02:15:37;;;;;;;7.70;4.20;;;17.20;99.90;;;;;;5005545;28;20053;-73
2022/08/30 02:18:03;;;;;;;6.82;4.75;;;17.10;99.90;;;;;;5006024;28;20368;-73
2022/08/30 02:20:28;;;;;;;8.70;4.82;;;17.10;99.90;;;;;;5013040;28;20029;-73
2022/08/30 02:22:54;;;;;;;7.68;4.60;;;17.10;99.90;;;;;;5013257;28;20038;-73
2022/08/30 02:25:20;;;;;;;8.02;4.75;;;17.10;99.90;;;;;;5012960;28;20034;-73
2022/08/30 02:27:46;;;;;;;10.52;5.15;;;17.10;99.90;;;;;;4998115;28;20028;-73
2022/08/30 02:30:12;;;;;;;6.90;5.10;;;17.10;99.90;;;;;;5012957;28;20025;-73
2022/08/30 02:32:37;;;;;;;6.20;4.80;;;17.10;99.90;;;;;;5013036;28;20041;-73
2022/08/30 02:35:03;;;;;;;7.57;4.90;;;17.10;99.90;;;;;;5012892;28;20028;-73
2022/08/30 02:37:29;;;;;;;9.38;5.57;;;17.00;99.90;;;;;;5012828;28;20383;-73
2022/08/30 02:39:55;;;;;;;9.55;5.80;;;17.00;99.90;;;;;;5012698;28;20053;-74
2022/08/30 02:42:20;;;;;;;8.10;5.88;;;17.00;99.90;;;;;;5013269;28;20444;-72
2022/08/30 02:44:46;;;;;;;9.98;5.68;;;17.00;99.90;;;;;;5012721;28;20377;-73
2022/08/30 02:47:11;;;;;;;10.23;5.72;;;17.00;99.90;;;;;;5012969;28;20109;-74
2022/08/30 02:49:37;;;;;;;10.18;5.95;;;17.00;99.90;;;;;;5010241;28;20390;-72
2022/08/30 02:52:04;;;;;;;9.02;6.07;;;17.00;99.90;;;;;;5001247;28;20125;-74
2022/08/30 02:54:31;;;;;;;10.65;6.13;;;17.00;99.90;;;;;;5012500;28;20100;-73
2022/08/30 02:56:57;;;;;;;12.70;6.35;;;17.00;99.90;;;;;;5013008;28;20343;-72
2022/08/30 02:59:23;;;;;;;10.10;6.60;;;17.00;99.90;;;;;;5011758;28;20108;-73
2022/08/30 03:01:49;;;;;;;10.45;6.38;;;17.00;99.90;;;;;;5012109;28;20089;-74
2022/08/30 03:04:14;;;;;;;9.07;6.45;;;17.00;99.90;;;;;;5012362;28;20107;-72
2022/08/30 03:06:40;;;;;;;8.68;6.50;;;17.00;99.90;;;;;;5012090;28;20037;-73
2022/08/30 03:09:05;;;;;;;8.40;6.55;;;17.00;99.90;;;;;;5003984;28;20025;-73
2022/08/30 03:11:31;;;;;;;8.90;6.15;;;17.00;99.90;;;;;;5006897;28;20470;-73
2022/08/30 03:13:57;;;;;;;13.02;7.13;;;17.00;99.90;;;;;;5011991;28;20117;-73
2022/08/30 03:16:22;;;;;;;13.52;7.35;;;17.00;99.90;;;;;;5011991;28;20022;-73
2022/08/30 03:18:48;;;;;;;10.25;7.40;;;16.90;99.90;;;;;;5011844;28;20381;-73
2022/08/30 03:21:15;;;;;;;11.23;7.68;;;16.90;99.90;;;;;;5011755;28;20084;-73
2022/08/30 03:23:41;;;;;;;11.90;7.28;;;16.90;99.90;;;;;;5011035;28;20033;-73
2022/08/30 03:26:09;;;;;;;11.50;7.55;;;16.90;99.90;;;;;;5011671;28;20079;-73
2022/08/30 03:28:35;;;;;;;12.93;7.70;;;16.90;99.90;;;;;;5012145;28;20437;-73
2022/08/30 03:31:00;;;;;;;12.00;7.78;;;16.90;99.90;;;;;;5011648;28;20093;-73
2022/08/30 03:33:26;;;;;;;9.27;7.22;;;16.90;99.90;;;;;;5010519;28;20029;-73
2022/08/30 03:35:52;;;;;;;10.27;8.15;;;16.80;99.90;;;;;;5011490;28;20033;-73
2022/08/30 03:38:18;;;;;;;13.18;7.80;;;16.80;99.90;;;;;;5011731;28;20022;-73
2022/08/30 03:40:43;;;;;;;10.77;7.85;;;16.80;99.90;;;;;;5012026;28;20026;-73
2022/08/30 03:43:09;;;;;;;13.88;7.35;;;16.80;99.90;;;;;;5010857;28;20049;-74
2022/08/30 03:45:34;;;;;;;11.15;8.38;;;16.80;99.90;;;;;;5011435;28;20034;-74
2022/08/30 03:48:01;;;;;;;11.73;7.55;;;16.80;99.90;;;;;;4997519;28;20025;-74
2022/08/30 03:50:27;;;;;;;11.77;8.43;;;16.70;99.90;;;;;;5011815;28;20022;-73
2022/08/30 03:52:53;;;;;;;13.15;8.65;;;16.70;99.90;;;;;;5011332;28;20522;-73
2022/08/30 03:55:19;;;;;;;11.45;8.23;;;16.70;99.90;;;;;;5011882;28;20033;-75
2022/08/30 03:57:45;;;;;;;12.95;9.10;;;16.70;99.90;;;;;;5011731;28;20033;-73
2022/08/30 04:00:13;;;;;;;13.82;8.65;;;16.70;99.90;;;;;;5011099;28;20390;-73
2022/08/30 04:02:40;;;;;;;15.15;9.20;;;16.70;99.90;;;;;;5010972;28;20394;-73
2022/08/30 04:05:07;;;;;;;14.00;9.23;;;16.70;99.90;;;;;;5011450;28;20443;-73
2022/08/30 04:07:32;;;;;;;12.45;8.98;;;16.70;99.90;;;;;;5011160;28;20026;-73
2022/08/30 04:09:58;;;;;;;13.15;9.50;;;16.60;99.90;;;;;;5009836;28;20026;-73
2022/08/30 04:12:23;;;;;;;14.02;9.70;;;16.60;99.90;;;;;;5011033;28;20026;-73
2022/08/30 04:14:49;;;;;;;15.70;9.38;;;16.60;99.90;;;;;;5011105;28;20026;-73
2022/08/30 04:17:15;;;;;;;14.77;10.10;;;16.60;99.90;;;;;;5010885;28;20030;-72
2022/08/30 04:19:40;;;;;;;12.45;8.70;;;16.60;99.90;;;;;;5011058;28;20149;-73
2022/08/30 04:22:06;;;;;;;18.02;8.82;;;16.60;99.90;;;;;;5010936;28;20441;-74
2022/08/30 04:24:33;;;;;;;13.65;10.52;;;16.60;99.90;;;;;;5010656;28;20022;-73
2022/08/30 04:26:59;;;;;;;14.70;9.80;;;16.60;99.90;;;;;;5011043;28;20390;-73
2022/08/30 04:29:24;;;;;;;12.75;9.10;;;16.60;99.90;;;;;;4997119;28;20072;-73
2022/08/30 04:31:50;;;;;;;18.55;10.77;;;16.60;99.90;;;;;;5010942;28;20017;-73
2022/08/30 04:34:15;;;;;;;14.13;9.30;;;16.60;99.90;;;;;;5010791;28;20390;-73
2022/08/30 04:36:41;;;;;;;15.90;9.25;;;16.50;99.90;;;;;;5011209;28;20092;-72
2022/08/30 04:39:07;;;;;;;12.25;9.93;;;16.50;99.90;;;;;;5010066;28;20025;-73
2022/08/30 04:41:34;;;;;;;14.68;9.95;;;16.50;99.90;;;;;;5010079;28;20532;-73
2022/08/30 04:44:02;;;;;;;14.20;10.07;;;16.50;99.90;;;;;;5007979;28;20041;-73
2022/08/30 04:46:29;;;;;;;13.77;9.80;;;16.40;99.90;;;;;;5008584;28;20022;-73
2022/08/30 04:48:54;;;;;;;15.13;9.10;;;16.40;99.90;;;;;;5008973;28;20347;-72
2022/08/30 04:51:20;;;;;;;18.23;10.65;;;16.40;99.90;;;;;;5007634;28;20048;-76
2022/08/30 04:53:46;;;;;;;17.75;10.70;;;16.40;99.90;;;;;;5009148;28;20386;-76
2022/08/30 04:56:18;;;;;;;13.32;9.77;;;16.40;99.90;;;;;;5009684;28;20022;-76
2022/08/30 04:58:45;;;;;;;17.20;10.48;;;16.40;99.90;;;;;;5008029;28;20113;-76
2022/08/30 05:01:17;;;;;;;16.02;9.77;;;16.40;99.90;;;;;;5009359;28;20041;-76
2022/08/30 05:03:43;;;;;;;15.65;10.48;;;16.40;99.90;;;;;;5003848;28;20050;-76
2022/08/30 05:06:11;;;;;;;17.73;10.45;;;16.40;99.90;;;;;;5005289;28;20160;-76
2022/08/30 05:08:37;;;;;;;16.48;10.23;;;16.40;99.90;;;;;;5008322;28;20014;-76
2022/08/30 05:11:05;;;;;;;13.05;10.38;;;16.30;99.90;;;;;;5008860;28;20382;-76
2022/08/30 05:13:32;;;;;;;12.88;10.02;;;16.40;99.90;;;;;;5007834;28;20026;-76
2022/08/30 05:15:59;;;;;;;17.65;10.27;;;16.30;99.90;;;;;;5007952;28;20029;-71
2022/08/30 05:18:25;;;;;;;16.92;10.65;;;16.30;99.90;;;;;;5010975;28;20429;-75
2022/08/30 05:21:05;;;;;;;22.25;10.80;;;16.30;99.90;;;;;;5011336;28;20349;-74
2022/08/30 05:23:31;;;;;;;17.27;11.02;;;16.30;99.90;;;;;;5006529;28;20034;-74
2022/08/30 05:25:56;;;;;;;19.88;10.90;;;16.30;99.90;;;;;;5002343;28;20080;-75
2022/08/30 05:28:22;;;;;;;16.08;10.93;;;16.30;99.90;;;;;;5010188;28;20431;-75
2022/08/30 05:30:47;;;;;;;16.15;11.30;;;16.30;99.90;;;;;;5004025;28;20026;-75
2022/08/30 05:33:13;;;;;;;18.00;10.93;;;16.30;99.90;;;;;;5010003;28;20057;-75
2022/08/30 05:35:39;;;;;;;17.85;10.73;;;16.30;99.90;;;;;;5011466;28;20084;-75
2022/08/30 05:38:05;;;;;;;15.05;11.57;;;16.30;99.90;;;;;;5014197;28;20029;-75
2022/08/30 05:40:31;;;;;;;19.65;11.00;;;16.30;99.90;;;;;;5012172;28;20029;-75
2022/08/30 05:42:56;;;;;;;17.23;11.80;;;16.30;99.90;;;;;;5010638;28;20061;-72
2022/08/30 05:45:22;;;;;;;15.88;10.45;;;16.40;99.90;;;;;;5008248;28;20056;-74
2022/08/30 05:47:47;;;;;;;15.93;10.63;;;16.40;99.90;;;;;;5005684;28;20060;-71
2022/08/30 05:50:13;;;;;;;15.85;10.98;;;16.40;99.90;;;;;;5008787;28;20092;-72
2022/08/30 05:52:41;;;;;;;17.52;11.65;;;16.40;99.90;;;;;;5008505;28;20029;-71
2022/08/30 05:55:07;;;;;;;18.17;11.23;;;16.40;99.90;;;;;;5010908;28;20049;-75
2022/08/30 05:57:38;;;;;;;16.73;11.10;;;16.40;99.90;;;;;;5010822;28;20033;-73
2022/08/30 06:00:13;;;;;;;15.57;11.50;;;16.50;99.90;;;;;;5008862;28;20030;-73
2022/08/30 06:02:40;;;;;;;15.85;10.73;;;16.50;99.90;;;;;;5013492;28;20100;-74
2022/08/30 06:05:07;;;;;;;13.32;10.27;;;16.50;99.90;;;;;;5002505;28;20066;-74
2022/08/30 06:07:33;;;;;;;18.20;11.15;;;16.50;99.90;;;;;;4998909;28;20034;-74
2022/08/30 06:09:58;;;;;;;17.27;11.38;;;16.50;99.90;;;;;;5010425;28;20026;-73
2022/08/30 06:12:24;;;;;;;15.43;11.10;;;16.60;99.90;;;;;;5011350;28;20036;-73
2022/08/30 06:14:50;;;;;;;16.52;10.77;;;16.60;99.90;;;;;;4998827;28;20030;-74
2022/08/30 06:17:15;;;;;;;16.85;11.20;;;16.60;99.90;;;;;;5010270;28;20025;-73
2022/08/30 06:19:41;;;;;;;16.45;10.60;;;16.60;99.90;;;;;;5000674;28;20030;-74
2022/08/30 06:22:07;;;;;;;17.80;9.95;;;16.70;99.90;;;;;;5011540;28;20025;-74
2022/08/30 06:24:35;;;;;;;15.20;10.68;;;16.70;99.90;;;;;;5004496;28;20637;-74
2022/08/30 06:27:00;;;;;;;15.95;9.73;;;16.70;99.90;;;;;;5005242;28;20027;-74
2022/08/30 06:29:26;;;;;;;16.27;10.45;;;16.80;99.90;;;;;;5011457;28;20040;-73
2022/08/30 06:31:51;;;;;;;15.48;9.88;;;16.80;99.90;;;;;;5013030;28;20084;-73
2022/08/30 06:34:17;;;;;;;15.43;9.90;;;16.80;99.90;;;;;;5005365;28;20473;-73
2022/08/30 06:36:43;;;;;;;12.98;9.40;;;16.90;99.90;;;;;;5007910;28;20109;-74
2022/08/30 06:39:09;;;;;;;14.55;9.65;;;16.90;99.90;;;;;;5012883;28;20109;-74
2022/08/30 06:41:37;;;;;;;13.73;9.65;;;16.90;99.90;;;;;;5012389;28;20064;-73
2022/08/30 06:44:04;;;;;;;15.85;9.93;;;16.90;99.90;;;;;;5011977;28;20092;-74
2022/08/30 06:46:33;;;;;;;11.15;9.00;;;17.00;99.90;;;;;;5009833;28;20189;-74
2022/08/30 06:49:00;;;;;;;14.45;10.23;;;17.00;99.90;;;;;;5006397;28;20068;-73
2022/08/30 06:51:29;;;;;;;14.30;9.18;;;17.00;99.90;;;;;;5009683;28;20474;-74
2022/08/30 06:53:55;;;;;;;10.65;9.05;;;17.10;99.90;;;;;;5009538;28;20104;-74
2022/08/30 06:56:22;;;;;;;13.85;8.45;;;17.10;99.90;;;;;;5009581;28;20080;-73
2022/08/30 06:58:48;;;;;;;10.30;8.57;;;17.10;99.90;;;;;;5012482;28;20037;-74
2022/08/30 07:01:23;;;;;;;11.60;7.88;;;17.20;99.90;;;;;;5009219;28;20433;-76
2022/08/30 07:03:49;;;;;;;12.60;7.68;;;17.20;99.90;;;;;;5010635;28;20087;-73
2022/08/30 07:06:15;;;;;;;14.73;8.32;;;17.30;99.90;;;;;;5010579;28;20487;-74
2022/08/30 07:08:41;;;;;;;12.63;8.05;;;17.30;99.90;;;;;;5004426;28;20021;-74
2022/08/30 07:11:07;;;;;;;13.63;7.90;;;17.40;99.90;;;;;;5009548;28;20443;-74
2022/08/30 07:13:34;;;;;;;12.00;7.22;;;17.40;99.90;;;;;;5011062;28;20037;-74
2022/08/30 07:16:00;;;;;;;11.43;6.88;;;17.50;99.90;;;;;;5012217;28;20482;-73
2022/08/30 07:21:14;;;;;;;8.55;6.15;;;17.60;99.90;;;;;;5002629;28;20394;-73
2022/08/30 07:23:42;;;;;;;10.52;5.97;;;17.70;99.90;;;;;;5012060;28;20409;-75
2022/08/30 07:26:11;;;;;;;8.82;5.85;;;17.80;99.90;;;;;;5007975;28;20018;-74
2022/08/30 07:28:39;;;;;;;8.90;5.57;;;17.80;99.90;;;;;;5004129;28;20038;-74
2022/08/30 07:31:05;;;;;;;8.20;5.35;;;17.90;99.90;;;;;;5010020;28;20497;-73
2022/08/30 07:33:32;;;;;;;7.57;5.65;;;18.00;99.90;;;;;;5002244;28;20018;-74
2022/08/30 07:35:58;;;;;;;10.07;5.10;;;18.10;99.90;;;;;;5007663;28;20040;-74
2022/08/30 07:38:24;;;;;;;9.35;5.50;;;18.20;99.90;;;;;;5011999;28;20048;-73
2022/08/30 07:40:50;;;;;;;5.95;4.97;;;18.20;99.90;;;;;;5007684;28;20030;-74
2022/08/30 07:43:16;;;;;;;7.55;4.53;;;18.30;99.90;;;;;;5002102;28;20054;-73
2022/08/30 07:45:41;;;;;;;10.52;4.78;;;18.40;99.90;;;;;;5006870;28;20102;-74
2022/08/30 07:48:10;;;;;;;10.15;4.32;;;18.50;99.90;;;;;;5009729;28;20076;-73
2022/08/30 07:50:36;;;;;;;6.80;3.72;;;18.60;99.90;;;;;;5000989;28;20103;-75
2022/08/30 07:53:02;;;;;;;7.85;3.63;;;18.70;99.90;;;;;;4998410;28;20031;-75
2022/08/30 07:55:27;;;;;;;6.18;3.10;;;18.80;99.90;;;;;;5006946;28;20034;-74
2022/08/30 07:57:53;;;;;;;5.22;3.20;;;19.00;99.90;;;;;;5006123;28;20036;-74
2022/08/30 08:00:19;;;;;;;4.75;2.70;;;19.10;99.90;;;;;;5011318;28;20025;-74
2022/08/30 08:02:45;;;;;;;6.47;2.88;;;19.20;99.90;;;;;;5010571;28;20029;-74
2022/08/30 08:05:10;;;;;;;3.78;2.58;;;19.40;99.90;;;;;;5006981;28;20061;-74
2022/08/30 08:07:36;;;;;;;7.00;2.50;;;19.40;99.90;;;;;;4992783;28;20061;-74
2022/08/30 08:10:02;;;;;;;4.53;2.40;;;19.50;99.90;;;;;;4998154;28;20076;-75
2022/08/30 08:12:28;;;;;;;6.97;2.47;;;19.60;99.90;;;;;;5010599;28;20018;-74
2022/08/30 08:14:54;;;;;;;6.47;2.30;;;19.70;99.90;;;;;;5010441;28;20049;-73
2022/08/30 08:17:19;;;;;;;7.18;2.42;;;19.80;99.90;;;;;;4999727;28;20065;-74
2022/08/30 08:19:45;;;;;;;4.13;2.28;;;20.00;99.90;;;;;;5011192;28;20053;-74
2022/08/30 08:22:11;;;;;;;4.40;2.28;;;20.10;99.90;;;;;;5010847;28;20106;-75
2022/08/30 08:24:36;;;;;;;5.47;2.05;;;20.30;99.90;;;;;;5011138;28;20025;-73
2022/08/30 08:27:02;;;;;;;7.07;2.20;;;20.40;99.90;;;;;;5006494;28;20038;-73
2022/08/30 08:29:27;;;;;;;4.57;1.88;;;20.40;99.90;;;;;;5008119;28;20201;-73
2022/08/30 08:31:53;;;;;;;3.47;1.85;;;20.50;99.90;;;;;;5006012;28;20088;-74
2022/08/30 08:34:22;;;;;;;3.97;1.75;;;20.60;99.90;;;;;;5007605;28;20072;-74
2022/08/30 08:36:48;;;;;;;5.90;1.83;;;20.70;99.90;;;;;;5008480;28;20022;-74
2022/08/30 08:39:14;;;;;;;4.50;1.60;;;20.80;99.90;;;;;;5010123;28;20056;-74
2022/08/30 08:41:52;;;;;;;4.35;1.85;;;20.90;99.90;;;;;;5010223;28;20057;-73
2022/08/30 08:44:34;;;;;;;3.67;1.55;;;21.00;99.90;;;;;;5010358;28;20046;-74
2022/08/30 08:47:17;;;;;;;6.28;1.50;;;21.00;99.90;;;;;;5005861;28;20025;-74
2022/08/30 08:49:46;;;;;;;3.70;1.60;;;21.20;99.90;;;;;;5010772;28;20379;-74
2022/08/30 08:55:11;;;;;;;3.35;1.55;;;21.50;99.90;;;;;;5004324;28;20066;-74
2022/08/30 08:57:37;;;;;;;2.05;1.58;;;21.60;99.90;;;;;;5008973;28;20492;-74
2022/08/30 09:00:09;;;;;;;5.45;1.77;;;21.60;99.90;;;;;;5009663;28;20498;-74
2022/08/30 09:02:56;;;;;;;5.43;1.75;;;21.70;99.90;;;;;;5007635;28;20022;-74
2022/08/30 09:05:25;;;;;;;4.70;1.83;;;21.70;99.90;;;;;;4996398;28;20025;-74
2022/08/30 09:08:03;;;;;;;3.33;1.75;;;21.80;99.90;;;;;;5007997;28;20022;-74
2022/08/30 09:10:31;;;;;;;3.30;1.70;;;21.80;99.90;;;;;;5006996;28;20026;-74
2022/08/30 09:12:57;;;;;;;3.00;1.83;;;21.90;99.90;;;;;;5010676;28;20427;-74
2022/08/30 09:15:27;;;;;;;2.30;1.33;;;22.00;99.90;;;;;;5010035;28;20064;-74
2022/08/30 09:17:52;;;;;;;3.17;1.50;;;22.00;98.90;;;;;;5007963;28;20053;-74
2022/08/30 09:20:27;;;;;;;4.53;1.67;;;22.00;98.80;;;;;;5009347;28;20026;-73
2022/08/30 09:22:52;;;;;;;3.75;1.70;;;22.10;98.40;;;;;;4996579;28;20026;-74
2022/08/30 09:25:23;;;;;;;5.03;1.70;;;22.10;98.00;;;;;;5008130;28;20317;-74
2022/08/30 09:27:51;;;;;;;4.57;2.10;;;22.20;97.90;;;;;;5010133;28;20022;-74
2022/08/30 09:30:26;;;;;;;5.70;1.65;;;22.20;97.90;;;;;;5008407;28;20490;-74
2022/08/30 09:32:56;;;;;;;3.92;1.50;;;22.40;97.80;;;;;;4999568;28;20030;-74
2022/08/30 09:35:33;;;;;;;2.85;1.63;;;22.60;97.50;;;;;;5005688;28;20031;-74
2022/08/30 09:38:10;;;;;;;4.15;1.80;;;22.70;97.30;;;;;;5006198;28;20041;-74
2022/08/30 09:40:45;;;;;;;1.80;1.40;;;22.90;96.80;;;;;;4997951;28;20054;-74
2022/08/30 09:43:16;;;;;;;4.90;1.60;;;23.00;96.20;;;;;;5006534;28;20408;-74
2022/08/30 09:46:03;;;;;;;3.20;1.90;;;23.00;95.90;;;;;;4999245;28;20041;-74
2022/08/30 09:48:31;;;;;;;3.92;1.73;;;23.20;96.00;;;;;;5004216;28;20018;-74
2022/08/30 09:51:09;;;;;;;5.10;1.70;;;23.30;95.30;;;;;;4995828;28;20038;-74
2022/08/30 09:54:11;;;;;;;4.53;1.70;;;23.30;94.60;;;;;;5005310;28;20489;-74
2022/08/30 09:57:01;;;;;;;5.03;1.67;;;23.40;93.90;;;;;;5001804;28;20029;-74
2022/08/30 09:59:45;;;;;;;2.40;1.60;;;23.40;93.90;;;;;;5003369;28;20482;-74
2022/08/30 10:02:28;;;;;;;2.72;1.40;;;23.50;92.90;;;;;;5000940;28;20486;-74
2022/08/30 10:05:11;;;;;;;3.60;1.60;;;23.50;92.50;;;;;;5005505;28;20042;-74
2022/08/30 10:07:58;;;;;;;4.68;1.88;;;23.50;92.10;;;;;;5023720;28;20406;-74
2022/08/30 10:10:42;;;;;;;3.88;1.70;;;23.60;91.70;;;;;;5013360;28;20072;-74
2022/08/30 10:13:32;;;;;;;4.53;1.70;;;23.50;91.30;;;;;;5005365;28;20092;-74
2022/08/30 10:16:13;;;;;;;2.72;1.30;;;23.50;91.20;;;;;;5013727;28;20034;-74
2022/08/30 10:18:57;;;;;;;5.70;1.80;;;23.60;91.00;;;;;;5009737;28;20013;-74
2022/08/30 10:21:30;;;;;;;3.30;1.38;;;23.70;89.20;;;;;;5005025;28;20026;-74
2022/08/30 10:24:08;;;;;;;1.65;1.50;;;23.70;88.60;;;;;;5012136;28;20032;-74
2022/08/30 10:26:38;;;;;;;5.30;1.80;;;23.70;88.80;;;;;;5004284;28;20058;-74
2022/08/30 10:29:17;;;;;;;3.13;1.52;;;23.70;88.80;;;;;;5008391;28;20037;-74
2022/08/30 10:31:56;;;;;;;4.72;1.95;;;23.90;88.90;;;;;;5000130;28;20041;-74
2022/08/30 10:34:38;;;;;;;3.50;1.60;;;23.90;87.70;;;;;;5007269;28;20144;-74
2022/08/30 10:37:13;;;;;;;4.10;1.60;;;24.00;87.20;;;;;;5007825;28;20425;-74
2022/08/30 10:39:45;;;;;;;2.75;1.55;;;24.10;85.60;;;;;;4999165;28;20017;-74
2022/08/30 10:42:17;;;;;;;1.88;1.27;;;24.10;85.00;;;;;;5012123;28;20029;-74
2022/08/30 10:44:48;;;;;;;3.40;1.35;;;24.20;84.30;;;;;;5004034;28;20367;-74
2022/08/30 10:47:52;;;;;;;3.60;1.52;;;24.20;83.30;;;;;;5006681;28;20109;-74
2022/08/30 10:50:23;;;;;;;5.30;1.58;;;24.20;81.30;;;;;;4989699;28;20039;-74
2022/08/30 10:52:57;;;;;;;4.25;1.50;;;24.20;81.70;;;;;;4990410;28;20112;-74
2022/08/30 10:55:32;;;;;;;11.27;1.85;;;24.30;81.10;;;;;;4989067;28;20042;-74
2022/08/30 10:58:05;;;;;;;3.13;1.50;;;24.30;79.80;;;;;;4985744;28;20043;-74
2022/08/30 11:00:49;;;;;;;5.35;1.85;;;24.30;79.50;;;;;;4988856;28;20038;-74
2022/08/30 11:04:09;;;;;;;2.72;1.50;;;24.40;78.90;;;;;;4990099;28;20084;-74
2022/08/30 11:06:53;;;;;;;5.70;1.67;;;24.40;78.60;;;;;;4968347;28;20446;-74
2022/08/30 11:09:51;;;;;;;4.35;1.50;;;24.50;78.00;;;;;;4981018;28;20057;-74
2022/08/30 11:12:28;;;;;;;2.83;1.70;;;24.70;75.10;;;;;;4990255;28;20584;-74
2022/08/30 11:14:54;;;;;;;5.32;1.42;;;24.60;76.40;;;;;;4989056;28;20066;-74
2022/08/30 11:17:35;;;;;;;2.80;1.42;;;24.60;74.90;;;;;;4989734;28;20062;-74
2022/08/30 11:20:03;;;;;;;4.63;1.48;;;24.60;73.60;;;;;;4981867;28;20074;-74
2022/08/30 11:22:35;;;;;;;6.45;1.80;;;24.60;73.40;;;;;;4988499;28;20025;-74
2022/08/30 11:25:14;;;;;;;4.20;1.52;;;24.70;73.10;;;;;;4989593;28;20120;-73
2022/08/30 11:27:39;;;;;;;3.08;1.60;;;24.80;73.60;;;;;;5001366;28;20140;-73
2022/08/30 11:30:23;;;;;;;3.78;1.55;;;25.00;72.50;;;;;;5010549;28;20518;-73
2022/08/30 11:33:10;;;;;;;5.22;1.67;;;25.00;70.30;;;;;;5010353;28;20491;-73
2022/08/30 11:35:45;;;;;;;3.33;1.38;;;25.00;70.40;;;;;;5010362;28;20053;-73
2022/08/30 11:38:39;;;;;;;4.72;1.52;;;24.90;70.30;;;;;;5011911;28;20447;-73
2022/08/30 11:41:09;;;;;;;2.83;1.42;;;25.00;69.60;;;;;;5002024;28;20023;-73
2022/08/30 11:43:34;;;;;;;5.28;1.70;;;25.00;69.70;;;;;;5006079;28;20042;-73
2022/08/30 11:46:13;;;;;;;3.88;1.67;;;25.10;69.10;;;;;;5011473;28;20026;-73
2022/08/30 11:48:42;;;;;;;4.22;1.52;;;25.20;67.30;;;;;;5002157;28;20018;-73
2022/08/30 11:51:48;;;;;;;3.63;1.50;;;25.30;68.80;;;;;;5005170;28;20034;-73
2022/08/30 11:54:28;;;;;;;2.65;1.50;;;25.40;67.80;;;;;;5001223;28;20471;-73
2022/08/30 11:57:06;;;;;;;4.40;1.70;;;25.40;67.20;;;;;;5006663;28;20034;-73
2022/08/30 11:59:54;;;;;;;7.95;1.77;;;25.40;67.50;;;;;;5001636;28;20077;-73
2022/08/30 12:02:41;;;;;;;2.47;1.45;;;25.40;66.20;;;;;;5007783;28;20034;-73
2022/08/30 12:05:06;;;;;;;4.63;1.40;;;25.30;66.60;;;;;;5010622;28;20121;-73
2022/08/30 12:07:55;;;;;;;3.25;1.58;;;25.20;67.10;;;;;;5000356;28;20492;-73
2022/08/30 12:10:38;;;;;;;5.18;1.58;;;25.30;66.80;;;;;;4998471;28;20045;-73
2022/08/30 12:13:04;;;;;;;4.38;1.48;;;25.40;65.90;;;;;;5004055;28;20390;-73
2022/08/30 12:15:56;;;;;;;2.38;1.48;;;25.40;66.10;;;;;;5010319;28;20299;-73
2022/08/30 12:18:27;;;;;;;2.25;1.40;;;25.50;65.80;;;;;;5008788;28;20053;-73
2022/08/30 12:20:54;;;;;;;2.15;1.50;;;25.60;66.20;;;;;;5004163;28;20235;-74
2022/08/30 12:23:40;;;;;;;3.38;1.38;;;25.70;66.30;;;;;;4996237;28;20383;-73
2022/08/30 12:26:19;;;;;;;7.00;1.77;;;25.80;66.30;;;;;;5009671;28;20087;-74
2022/08/30 12:28:47;;;;;;;4.35;1.70;;;25.80;65.10;;;;;;5010611;28;20046;-73
2022/08/30 12:31:16;;;;;;;5.65;1.63;;;25.70;64.30;;;;;;5009469;28;20080;-74
2022/08/30 12:33:45;;;;;;;3.40;1.63;;;25.60;64.30;;;;;;5011013;28;20196;-74
2022/08/30 12:36:30;;;;;;;3.78;1.33;;;25.50;64.30;;;;;;5009269;28;20030;-74
2022/08/30 12:39:21;;;;;;;6.63;1.80;;;25.50;63.90;;;;;;5010961;28;20112;-73
2022/08/30 12:41:47;;;;;;;3.75;1.70;;;25.60;64.20;;;;;;5009741;28;20045;-74
2022/08/30 12:44:23;;;;;;;4.25;1.88;;;25.60;64.40;;;;;;5003529;28;20058;-73
2022/08/30 12:46:55;;;;;;;2.28;1.48;;;25.70;63.40;;;;;;5003484;28;20088;-74
2022/08/30 12:49:24;;;;;;;4.40;1.65;;;25.70;63.60;;;;;;5005794;28;20026;-73
2022/08/30 12:51:50;;;;;;;3.63;1.55;;;25.80;64.00;;;;;;5008785;28;20036;-77
2022/08/30 12:54:22;;;;;;;22.50;16.70;;;25.80;63.70;;;;;;4998442;28;20110;-73
2022/08/30 12:56:56;;;;;;;5.75;2.35;;;25.90;64.00;;;;;;5004873;28;20038;-73
2022/08/30 12:59:46;;;;;;;4.88;1.45;;;26.00;63.70;;;;;;5006254;28;20029;-73
2022/08/30 13:02:21;;;;;;;3.42;1.73;;;26.00;63.70;;;;;;5007522;28;20026;-73